createdAt,value
2018-03-07T00:00:24.388Z,98.67
2018-03-07T00:01:34.093Z,98.39
2018-03-07T00:02:43.799Z,98.01
2018-03-07T00:03:53.506Z,98.29
2018-03-07T00:05:03.201Z,98.29
2018-03-07T00:06:13.161Z,98.48
2018-03-07T00:07:23.112Z,98.2
2018-03-07T00:08:33.069Z,98.39
2018-03-07T00:09:43.024Z,98.39
2018-03-07T00:10:52.984Z,97.91
2018-03-07T00:12:02.965Z,97.91
2018-03-07T00:13:12.689Z,98.01
2018-03-07T00:14:22.657Z,98.1
2018-03-07T00:15:32.614Z,98.29
2018-03-07T00:16:42.311Z,98.29
2018-03-07T00:17:52.006Z,97.72
2018-03-07T00:19:01.448Z,98.48
2018-03-07T00:20:11.406Z,98.29
2018-03-07T00:21:21.103Z,97.91
2018-03-07T00:22:31.094Z,97.82
2018-03-07T00:23:40.551Z,98.1
2018-03-07T00:24:50.535Z,97.63
2018-03-07T00:26:00.493Z,98.2
2018-03-07T00:27:10.461Z,98.29
2018-03-07T00:28:20.434Z,98.39
2018-03-07T00:29:30.390Z,98.67
2018-03-07T00:30:40.083Z,97.91
2018-03-07T00:31:49.784Z,98.39
2018-03-07T00:32:59.994Z,97.91
2018-03-07T00:34:09.959Z,97.72
2018-03-07T00:35:19.952Z,97.91
2018-03-07T00:36:29.910Z,97.63
2018-03-07T00:37:39.606Z,98.01
2018-03-07T00:38:49.552Z,97.72
2018-03-07T00:39:59.501Z,98.1
2018-03-07T00:41:09.503Z,97.72
2018-03-07T00:42:19.456Z,97.91
2018-03-07T00:43:28.893Z,98.1
2018-03-07T00:44:38.607Z,97.53
2018-03-07T00:45:48.308Z,97.44
2018-03-07T00:46:58.319Z,97.44
2018-03-07T00:48:07.780Z,97.44
2018-03-07T00:49:17.495Z,97.72
2018-03-07T00:50:27.199Z,97.44
2018-03-07T00:51:37.178Z,97.25
2018-03-07T00:52:46.880Z,97.82
2018-03-07T00:53:56.847Z,97.16
2018-03-07T00:55:06.799Z,97.06
2018-03-07T00:56:16.754Z,97.34
2018-03-07T00:57:26.449Z,96.59
2018-03-07T00:58:36.408Z,96.78
2018-03-07T00:59:46.389Z,96.5
2018-03-07T01:00:56.337Z,96.4
2018-03-07T01:02:06.549Z,96.31
2018-03-07T01:03:16.509Z,96.4
2018-03-07T01:04:26.468Z,96.69
2018-03-07T01:05:36.178Z,96.5
2018-03-07T01:06:46.142Z,96.69
2018-03-07T01:07:56.363Z,95.55
2018-03-07T01:09:06.323Z,95.64
2018-03-07T01:10:16.289Z,95.55
2018-03-07T01:11:26.239Z,96.5
2018-03-07T01:12:36.189Z,96.69
2018-03-07T01:13:46.146Z,96.5
2018-03-07T01:14:55.849Z,96.59
2018-03-07T01:16:05.803Z,96.5
2018-03-07T01:17:15.506Z,96.5
2018-03-07T01:18:25.453Z,96.31
2018-03-07T01:19:35.401Z,96.69
2018-03-07T01:20:45.357Z,96.5
2018-03-07T01:21:55.312Z,96.31
2018-03-07T01:23:05.010Z,96.69
2018-03-07T01:24:14.705Z,96.69
2018-03-07T01:25:24.180Z,96.5
2018-03-07T01:26:33.880Z,96.5
2018-03-07T01:27:43.325Z,95.64
2018-03-07T01:28:52.766Z,95.64
2018-03-07T01:30:02.203Z,95.64
2018-03-07T01:31:11.933Z,95.36
2018-03-07T01:32:21.634Z,95.64
2018-03-07T01:33:31.604Z,95.83
2018-03-07T01:34:41.572Z,95.93
2018-03-07T01:35:51.535Z,95.93
2018-03-07T01:37:01.520Z,95.83
2018-03-07T01:38:11.485Z,95.74
2018-03-07T01:39:21.455Z,95.36
2018-03-07T01:40:31.427Z,95.26
2018-03-07T01:41:41.397Z,95.55
2018-03-07T01:42:51.370Z,95.55
2018-03-07T01:44:01.072Z,95.64
2018-03-07T01:45:10.780Z,95.45
2018-03-07T01:46:20.477Z,95.55
2018-03-07T01:47:30.187Z,95.55
2018-03-07T01:48:40.161Z,95.64
2018-03-07T01:49:50.366Z,95.93
2018-03-07T01:51:00.066Z,96.02
2018-03-07T01:52:10.036Z,96.12
2018-03-07T01:53:19.998Z,95.74
2018-03-07T01:54:29.968Z,95.93
2018-03-07T01:55:39.931Z,95.55
2018-03-07T01:56:49.881Z,95.83
2018-03-07T01:57:59.844Z,95.74
2018-03-07T01:59:09.802Z,95.93
2018-03-07T02:00:19.761Z,95.83
2018-03-07T02:01:29.710Z,95.74
2018-03-07T02:02:39.681Z,95.74
2018-03-07T02:03:49.638Z,95.74
2018-03-07T02:04:59.605Z,95.55
2018-03-07T02:06:09.560Z,95.64
2018-03-07T02:07:19.263Z,96.31
2018-03-07T02:08:28.964Z,96.31
2018-03-07T02:09:38.677Z,95.74
2018-03-07T02:10:48.639Z,96.31
2018-03-07T02:11:58.606Z,96.69
2018-03-07T02:13:08.315Z,96.59
2018-03-07T02:14:17.491Z,95.55
2018-03-07T02:15:26.935Z,95.45
2018-03-07T02:16:36.642Z,95.74
2018-03-07T02:17:46.349Z,95.93
2018-03-07T02:18:56.057Z,95.83
2018-03-07T02:20:05.243Z,95.83
2018-03-07T02:21:14.947Z,95.64
2018-03-07T02:22:24.909Z,95.55
2018-03-07T02:23:34.617Z,95.36
2018-03-07T02:24:44.568Z,95.74
2018-03-07T02:25:54.518Z,95.83
2018-03-07T02:27:04.484Z,96.02
2018-03-07T02:28:14.441Z,95.74
2018-03-07T02:29:24.135Z,95.74
2018-03-07T02:30:33.581Z,95.74
2018-03-07T02:31:43.546Z,95.83
2018-03-07T02:32:53.505Z,95.83
2018-03-07T02:34:03.485Z,95.74
2018-03-07T02:35:12.927Z,95.83
2018-03-07T02:36:22.632Z,95.83
2018-03-07T02:37:32.344Z,95.64
2018-03-07T02:38:42.058Z,95.88
2018-03-07T02:39:51.771Z,95.83
2018-03-07T02:41:01.465Z,95.93
2018-03-07T02:42:11.437Z,95.59
2018-03-07T02:43:20.872Z,96.31
2018-03-07T02:44:30.834Z,95.55
2018-03-07T02:45:40.793Z,95.74
2018-03-07T02:46:50.503Z,95.5
2018-03-07T02:48:00.484Z,95.59
2018-03-07T02:49:10.466Z,95.31
2018-03-07T02:50:20.440Z,95.31
2018-03-07T02:51:30.417Z,95.69
2018-03-07T02:52:40.135Z,95.69
2018-03-07T02:53:49.870Z,95.59
2018-03-07T02:54:59.957Z,95.4
2018-03-07T02:56:09.674Z,95.21
2018-03-07T02:57:19.645Z,95.03
2018-03-07T02:58:29.354Z,94.56
2018-03-07T02:59:39.047Z,94.56
2018-03-07T03:00:48.764Z,94.56
2018-03-07T03:01:58.734Z,94.56
2018-03-07T03:03:08.700Z,94.74
2018-03-07T03:04:18.143Z,94.65
2018-03-07T03:05:28.182Z,94.84
2018-03-07T03:06:38.186Z,93.8
2018-03-07T03:07:48.141Z,93.99
2018-03-07T03:08:57.845Z,93.89
2018-03-07T03:10:07.823Z,94.08
2018-03-07T03:11:17.266Z,94.08
2018-03-07T03:12:27.225Z,94.27
2018-03-07T03:13:36.916Z,93.8
2018-03-07T03:14:46.865Z,93.8
2018-03-07T03:15:56.823Z,93.7
2018-03-07T03:17:06.780Z,93.42
2018-03-07T03:18:16.471Z,93.51
2018-03-07T03:19:26.178Z,92.76
2018-03-07T03:20:36.144Z,93.89
2018-03-07T03:21:46.120Z,93.8
2018-03-07T03:22:56.075Z,92.76
2018-03-07T03:24:06.275Z,92.76
2018-03-07T03:25:16.246Z,92.57
2018-03-07T03:26:26.192Z,92.38
2018-03-07T03:27:35.875Z,92.43
2018-03-07T03:28:45.317Z,92.57
2018-03-07T03:29:55.279Z,92
2018-03-07T03:31:05.257Z,92.38
2018-03-07T03:32:14.962Z,91.81
2018-03-07T03:33:24.661Z,92.1
2018-03-07T03:34:34.884Z,91.72
2018-03-07T03:35:44.843Z,92.1
2018-03-07T03:36:54.539Z,92.1
2018-03-07T03:38:03.717Z,91.34
2018-03-07T03:39:13.674Z,91.43
2018-03-07T03:40:23.368Z,91.24
2018-03-07T03:41:33.068Z,91.53
2018-03-07T03:42:42.762Z,91.05
2018-03-07T03:43:52.713Z,90.77
2018-03-07T03:45:02.680Z,90.96
2018-03-07T03:46:12.643Z,90.68
2018-03-07T03:47:22.601Z,90.68
2018-03-07T03:48:32.036Z,90.86
2018-03-07T03:49:41.477Z,91.24
2018-03-07T03:50:51.666Z,91.15
2018-03-07T03:52:01.361Z,91.24
2018-03-07T03:53:11.315Z,90.77
2018-03-07T03:54:21.270Z,90.68
2018-03-07T03:55:31.222Z,90.39
2018-03-07T03:56:41.197Z,90.39
2018-03-07T03:57:51.150Z,90.11
2018-03-07T03:59:01.103Z,90.01
2018-03-07T04:00:11.063Z,90.01
2018-03-07T04:01:20.762Z,89.64
2018-03-07T04:02:30.709Z,90.01
2018-03-07T04:03:40.409Z,90.01
2018-03-07T04:04:50.124Z,90.11
2018-03-07T04:06:00.082Z,89.83
2018-03-07T04:07:10.038Z,89.73
2018-03-07T04:08:19.997Z,90.01
2018-03-07T04:09:29.951Z,89.83
2018-03-07T04:10:39.900Z,90.01
2018-03-07T04:11:49.873Z,90.2
2018-03-07T04:12:59.819Z,89.92
2018-03-07T04:14:09.768Z,89.64
2018-03-07T04:15:19.460Z,89.54
2018-03-07T04:16:29.171Z,89.54
2018-03-07T04:17:39.370Z,89.26
2018-03-07T04:18:49.320Z,89.73
2018-03-07T04:19:59.299Z,89.64
2018-03-07T04:21:08.741Z,89.54
2018-03-07T04:22:18.693Z,89.07
2018-03-07T04:23:28.386Z,89.45
2018-03-07T04:24:38.072Z,89.54
2018-03-07T04:25:48.018Z,89.36
2018-03-07T04:26:57.715Z,89.36
2018-03-07T04:28:07.671Z,89.54
2018-03-07T04:29:17.365Z,89.64
2018-03-07T04:30:27.328Z,89.45
2018-03-07T04:31:37.286Z,89.64
2018-03-07T04:32:47.232Z,89.36
2018-03-07T04:33:57.183Z,88.88
2018-03-07T04:35:06.885Z,89.54
2018-03-07T04:36:16.834Z,88.88
2018-03-07T04:37:26.551Z,89.07
2018-03-07T04:38:36.521Z,89.07
2018-03-07T04:39:46.228Z,89.07
2018-03-07T04:40:56.179Z,88.6
2018-03-07T04:42:06.137Z,88.98
2018-03-07T04:43:16.095Z,88.88
2018-03-07T04:44:25.793Z,88.79
2018-03-07T04:45:35.749Z,88.98
2018-03-07T04:46:45.706Z,89.07
2018-03-07T04:47:55.658Z,88.88
2018-03-07T04:49:05.608Z,88.88
2018-03-07T04:50:15.566Z,89.07
2018-03-07T04:51:25.275Z,88.98
2018-03-07T04:52:35.225Z,88.41
2018-03-07T04:53:44.656Z,88.79
2018-03-07T04:54:54.349Z,89.26
2018-03-07T04:56:04.327Z,88.6
2018-03-07T04:57:13.765Z,88.69
2018-03-07T04:58:23.728Z,88.88
2018-03-07T04:59:33.428Z,88.6
2018-03-07T05:00:43.399Z,88.6
2018-03-07T05:01:53.354Z,88.5
2018-03-07T05:03:03.326Z,88.6
2018-03-07T05:04:13.278Z,88.5
2018-03-07T05:05:23.240Z,88.5
2018-03-07T05:06:33.198Z,88.41
2018-03-07T05:07:43.160Z,88.41
2018-03-07T05:08:53.120Z,87.93
2018-03-07T05:10:02.829Z,88.31
2018-03-07T05:11:12.802Z,88.6
2018-03-07T05:12:22.496Z,88.03
2018-03-07T05:13:31.929Z,87.65
2018-03-07T05:14:41.899Z,86.9
2018-03-07T05:15:51.860Z,86.99
2018-03-07T05:17:01.827Z,87.08
2018-03-07T05:18:11.793Z,86.61
2018-03-07T05:19:21.227Z,86.8
2018-03-07T05:20:30.659Z,86.8
2018-03-07T05:21:40.625Z,86.42
2018-03-07T05:22:50.795Z,86.33
2018-03-07T05:24:00.242Z,86.28
2018-03-07T05:25:09.935Z,86.23
2018-03-07T05:26:19.793Z,86.23
2018-03-07T05:27:29.785Z,86.14
2018-03-07T05:28:39.739Z,85.85
2018-03-07T05:29:49.699Z,85.99
2018-03-07T05:30:59.678Z,86.04
2018-03-07T05:32:09.918Z,86.04
2018-03-07T05:33:19.871Z,86.18
2018-03-07T05:34:29.836Z,86.18
2018-03-07T05:35:39.790Z,85.76
2018-03-07T05:36:49.753Z,85.9
2018-03-07T05:37:59.709Z,85.57
2018-03-07T05:39:09.666Z,85.52
2018-03-07T05:40:19.636Z,85.9
2018-03-07T05:41:29.594Z,85.85
2018-03-07T05:42:39.346Z,85.14
2018-03-07T05:43:49.295Z,85.24
2018-03-07T05:44:58.990Z,85.24
2018-03-07T05:46:08.954Z,84.95
2018-03-07T05:47:18.916Z,85.05
2018-03-07T05:48:28.623Z,84.95
2018-03-07T05:49:38.576Z,84.86
2018-03-07T05:50:48.289Z,84.86
2018-03-07T05:51:58.249Z,85.24
2018-03-07T05:53:08.204Z,85.14
2018-03-07T05:54:18.181Z,85.05
2018-03-07T05:55:28.133Z,84.86
2018-03-07T05:56:38.096Z,84.95
2018-03-07T05:57:48.052Z,85.14
2018-03-07T05:58:58.010Z,85.14
2018-03-07T06:00:08.046Z,84.95
2018-03-07T06:01:17.808Z,85.14
2018-03-07T06:02:27.761Z,84.48
2018-03-07T06:03:37.717Z,85.05
2018-03-07T06:04:47.667Z,84.48
2018-03-07T06:05:57.634Z,84.77
2018-03-07T06:07:07.347Z,84.39
2018-03-07T06:08:17.321Z,84.58
2018-03-07T06:09:27.281Z,84.48
2018-03-07T06:10:37.250Z,84.48
2018-03-07T06:11:47.219Z,84.95
2018-03-07T06:12:57.426Z,84.67
2018-03-07T06:14:07.392Z,84.58
2018-03-07T06:15:17.350Z,84.95
2018-03-07T06:16:27.056Z,84.77
2018-03-07T06:17:37.020Z,84.58
2018-03-07T06:18:46.983Z,84.67
2018-03-07T06:19:56.678Z,84.39
2018-03-07T06:21:06.639Z,84.2
2018-03-07T06:22:16.598Z,84.58
2018-03-07T06:23:26.301Z,84.39
2018-03-07T06:24:36.010Z,84.39
2018-03-07T06:25:45.988Z,84.48
2018-03-07T06:26:56.014Z,84.48
2018-03-07T06:28:05.997Z,84.58
2018-03-07T06:29:15.963Z,84.39
2018-03-07T06:30:25.936Z,84.29
2018-03-07T06:31:35.908Z,84.39
2018-03-07T06:32:45.880Z,83.82
2018-03-07T06:33:55.865Z,83.82
2018-03-07T06:35:05.573Z,83.82
2018-03-07T06:36:15.554Z,83.82
2018-03-07T06:37:25.518Z,84.01
2018-03-07T06:38:35.486Z,83.91
2018-03-07T06:39:45.443Z,84.01
2018-03-07T06:40:55.155Z,84.2
2018-03-07T06:42:05.118Z,84.01
2018-03-07T06:43:15.117Z,83.63
2018-03-07T06:44:24.839Z,83.63
2018-03-07T06:45:34.291Z,83.72
2018-03-07T06:46:44.267Z,83.53
2018-03-07T06:47:53.982Z,83.82
2018-03-07T06:49:03.696Z,83.72
2018-03-07T06:50:13.730Z,83.53
2018-03-07T06:51:23.245Z,83.72
2018-03-07T06:52:33.247Z,83.63
2018-03-07T06:53:42.951Z,83.44
2018-03-07T06:54:52.662Z,83.25
2018-03-07T06:56:02.646Z,83.34
2018-03-07T06:57:12.631Z,83.15
2018-03-07T06:58:22.405Z,83.15
2018-03-07T06:59:32.127Z,83.25
2018-03-07T07:00:42.102Z,83.25
2018-03-07T07:01:52.067Z,83.34
2018-03-07T07:03:02.054Z,83.44
2018-03-07T07:04:12.043Z,82.97
2018-03-07T07:05:22.294Z,82.87
2018-03-07T07:06:32.420Z,83.06
2018-03-07T07:07:42.138Z,83.06
2018-03-07T07:08:52.126Z,83.25
2018-03-07T07:10:02.107Z,82.31
2018-03-07T07:11:12.068Z,82.59
2018-03-07T07:12:22.030Z,82.31
2018-03-07T07:13:31.998Z,82.78
2018-03-07T07:14:41.968Z,82.87
2018-03-07T07:15:51.694Z,82.68
2018-03-07T07:17:01.753Z,82.5
2018-03-07T07:18:11.722Z,82.31
2018-03-07T07:19:21.681Z,82.4
2018-03-07T07:20:31.393Z,82.02
2018-03-07T07:21:41.102Z,82.12
2018-03-07T07:22:51.093Z,82.21
2018-03-07T07:24:00.541Z,81.64
2018-03-07T07:25:10.256Z,81.93
2018-03-07T07:26:19.704Z,81.55
2018-03-07T07:27:29.774Z,81.74
2018-03-07T07:28:39.736Z,81.74
2018-03-07T07:29:49.438Z,81.93
2018-03-07T07:30:59.388Z,81.83
2018-03-07T07:32:09.369Z,81.83
2018-03-07T07:33:19.336Z,81.36
2018-03-07T07:34:29.317Z,81.83
2018-03-07T07:35:38.766Z,81.93
2018-03-07T07:36:48.585Z,81.55
2018-03-07T07:37:58.300Z,82.21
2018-03-07T07:39:08.012Z,82.68
2018-03-07T07:40:17.718Z,82.4
2018-03-07T07:41:27.682Z,82.31
2018-03-07T07:42:37.656Z,82.4
2018-03-07T07:43:47.359Z,82.5
2018-03-07T07:44:57.317Z,84.48
2018-03-07T07:46:07.069Z,85.52
2018-03-07T07:47:17.078Z,85.61
2018-03-07T07:48:27.476Z,86.28
2018-03-07T07:49:37.211Z,86.47
2018-03-07T07:50:47.294Z,87.13
2018-03-07T07:51:57.305Z,87.41
2018-03-07T07:53:07.280Z,86.66
2018-03-07T07:54:17.249Z,87.13
2018-03-07T07:55:27.232Z,86.56
2018-03-07T07:56:37.218Z,86.28
2018-03-07T07:57:47.217Z,86.37
2018-03-07T07:58:57.172Z,86.66
2018-03-07T08:00:06.875Z,85.99
2018-03-07T08:01:16.575Z,86.28
2018-03-07T08:02:26.560Z,85.99
2018-03-07T08:03:36.783Z,85.33
2018-03-07T08:04:46.769Z,85.9
2018-03-07T08:05:56.809Z,86.09
2018-03-07T08:07:05.929Z,85.9
2018-03-07T08:08:15.896Z,85.99
2018-03-07T08:09:25.139Z,85.9
2018-03-07T08:10:34.404Z,85.8
2018-03-07T08:11:43.597Z,86.18
2018-03-07T08:12:53.307Z,85.99
2018-03-07T08:14:03.017Z,86.37
2018-03-07T08:15:12.988Z,85.9
2018-03-07T08:16:22.696Z,86.85
2018-03-07T08:17:32.428Z,86.66
2018-03-07T08:18:42.384Z,86.28
2018-03-07T08:19:52.082Z,86.56
2018-03-07T08:21:01.785Z,86.47
2018-03-07T08:22:11.496Z,87.04
2018-03-07T08:23:21.196Z,86.66
2018-03-07T08:24:31.158Z,86.47
2018-03-07T08:25:41.126Z,86.09
2018-03-07T08:26:51.094Z,86.28
2018-03-07T08:28:01.051Z,86.85
2018-03-07T08:29:10.752Z,86.85
2018-03-07T08:30:21.007Z,86.85
2018-03-07T08:31:30.720Z,87.79
2018-03-07T08:32:40.226Z,87.88
2018-03-07T08:33:49.927Z,88.26
2018-03-07T08:34:59.939Z,87.41
2018-03-07T08:36:09.927Z,87.23
2018-03-07T08:37:20.166Z,87.13
2018-03-07T08:38:30.245Z,86.66
2018-03-07T08:39:40.220Z,86.94
2018-03-07T08:40:49.936Z,86.85
2018-03-07T08:41:59.944Z,86.85
2018-03-07T08:43:09.919Z,87.23
2018-03-07T08:44:19.881Z,87.41
2018-03-07T08:45:29.602Z,87.51
2018-03-07T08:46:39.583Z,87.6
2018-03-07T08:47:49.281Z,87.51
2018-03-07T08:48:59.246Z,87.32
2018-03-07T08:50:09.212Z,87.32
2018-03-07T08:51:19.254Z,87.41
2018-03-07T08:52:29.230Z,87.41
2018-03-07T08:53:39.201Z,87.41
2018-03-07T08:54:48.973Z,87.41
2018-03-07T08:55:59.088Z,86.85
2018-03-07T08:57:09.080Z,86.18
2018-03-07T08:58:19.072Z,85.99
2018-03-07T08:59:28.773Z,85.9
2018-03-07T09:00:38.539Z,85.8
2018-03-07T09:01:48.600Z,85.71
2018-03-07T09:02:58.565Z,85.8
2018-03-07T09:04:08.287Z,86.18
2018-03-07T09:05:18.017Z,86.09
2018-03-07T09:06:27.715Z,85.99
2018-03-07T09:07:37.673Z,86.09
2018-03-07T09:08:47.411Z,86.18
2018-03-07T09:09:57.116Z,86.28
2018-03-07T09:11:06.298Z,86.09
2018-03-07T09:12:16.275Z,86.09
2018-03-07T09:13:26.239Z,86.09
2018-03-07T09:14:36.219Z,85.99
2018-03-07T09:15:46.243Z,85.61
2018-03-07T09:16:56.193Z,85.9
2018-03-07T09:18:06.164Z,85.8
2018-03-07T09:19:15.872Z,85.61
2018-03-07T09:20:25.850Z,85.99
2018-03-07T09:21:35.818Z,85.9
2018-03-07T09:22:45.799Z,85.52
2018-03-07T09:23:55.786Z,86.09
2018-03-07T09:25:05.793Z,85.9
2018-03-07T09:26:15.794Z,86.09
2018-03-07T09:27:25.805Z,86.09
2018-03-07T09:28:35.612Z,86.09
2018-03-07T09:29:45.596Z,86.09
2018-03-07T09:30:55.589Z,85.8
2018-03-07T09:32:05.580Z,86.09
2018-03-07T09:33:15.570Z,86.09
2018-03-07T09:34:25.531Z,86.09
2018-03-07T09:35:35.239Z,85.99
2018-03-07T09:36:44.957Z,86.09
2018-03-07T09:37:54.958Z,85.99
2018-03-07T09:39:05.007Z,86.28
2018-03-07T09:40:15.002Z,86.09
2018-03-07T09:41:24.730Z,86.28
2018-03-07T09:42:34.712Z,86.28
2018-03-07T09:43:44.704Z,86.09
2018-03-07T09:44:54.683Z,85.99
2018-03-07T09:46:04.677Z,86.56
2018-03-07T09:47:14.680Z,85.99
2018-03-07T09:48:24.465Z,86.09
2018-03-07T09:49:34.421Z,86.18
2018-03-07T09:50:44.372Z,85.99
2018-03-07T09:51:54.339Z,86.09
2018-03-07T09:53:04.318Z,86.09
2018-03-07T09:54:14.294Z,85.99
2018-03-07T09:55:23.990Z,86.47
2018-03-07T09:56:34.027Z,86.28
2018-03-07T09:57:44.186Z,85.99
2018-03-07T09:58:53.912Z,86.37
2018-03-07T10:00:03.625Z,86.28
2018-03-07T10:01:13.328Z,86.66
2018-03-07T10:02:22.771Z,86.85
2018-03-07T10:03:32.225Z,86.94
2018-03-07T10:04:42.202Z,87.51
2018-03-07T10:05:52.199Z,87.7
2018-03-07T10:07:02.349Z,87.41
2018-03-07T10:08:12.229Z,87.88
2018-03-07T10:09:22.260Z,88.17
2018-03-07T10:10:31.706Z,87.88
2018-03-07T10:11:41.713Z,88.26
2018-03-07T10:12:51.687Z,88.26
2018-03-07T10:14:01.665Z,88.74
2018-03-07T10:15:11.665Z,89.21
2018-03-07T10:16:21.673Z,88.55
2018-03-07T10:17:31.701Z,88.36
2018-03-07T10:18:41.663Z,88.26
2018-03-07T10:19:51.124Z,88.64
2018-03-07T10:21:01.096Z,88.26
2018-03-07T10:22:11.098Z,88.26
2018-03-07T10:23:21.100Z,88.45
2018-03-07T10:24:30.800Z,88.36
2018-03-07T10:25:40.763Z,88.36
2018-03-07T10:26:50.750Z,87.79
2018-03-07T10:28:00.720Z,88.36
2018-03-07T10:29:10.421Z,87.88
2018-03-07T10:30:20.130Z,87.79
2018-03-07T10:31:30.090Z,88.26
2018-03-07T10:32:40.068Z,87.7
2018-03-07T10:33:50.023Z,88.45
2018-03-07T10:34:59.982Z,87.98
2018-03-07T10:36:10.004Z,87.88
2018-03-07T10:37:19.973Z,87.88
2018-03-07T10:38:29.679Z,88.17
2018-03-07T10:39:39.734Z,87.88
2018-03-07T10:40:49.448Z,87.88
2018-03-07T10:41:59.420Z,87.88
2018-03-07T10:43:09.581Z,88.07
2018-03-07T10:44:19.297Z,88.45
2018-03-07T10:45:29.278Z,88.64
2018-03-07T10:46:39.307Z,88.36
2018-03-07T10:47:49.038Z,88.83
2018-03-07T10:48:59.024Z,88.26
2018-03-07T10:50:08.995Z,88.74
2018-03-07T10:51:18.714Z,88.36
2018-03-07T10:52:28.719Z,88.26
2018-03-07T10:53:38.164Z,88.26
2018-03-07T10:54:47.608Z,88.36
2018-03-07T10:55:57.042Z,87.88
2018-03-07T10:57:06.789Z,88.36
2018-03-07T10:58:16.750Z,88.93
2018-03-07T10:59:26.444Z,88.74
2018-03-07T11:00:36.141Z,89.21
2018-03-07T11:01:46.099Z,89.31
2018-03-07T11:02:55.828Z,89.12
2018-03-07T11:04:05.847Z,88.74
2018-03-07T11:05:15.821Z,88.83
2018-03-07T11:06:25.544Z,88.93
2018-03-07T11:07:35.501Z,90.16
2018-03-07T11:08:45.475Z,89.4
2018-03-07T11:09:55.456Z,90.06
2018-03-07T11:11:05.428Z,89.69
2018-03-07T11:12:14.880Z,89.78
2018-03-07T11:13:24.597Z,89.02
2018-03-07T11:14:34.624Z,88.74
2018-03-07T11:15:44.088Z,89.02
2018-03-07T11:16:53.786Z,89.4
2018-03-07T11:18:03.783Z,90.25
2018-03-07T11:19:13.749Z,89.78
2018-03-07T11:20:23.713Z,89.31
2018-03-07T11:21:33.402Z,89.82
2018-03-07T11:22:43.374Z,89.5
2018-03-07T11:23:53.330Z,90.25
2018-03-07T11:25:03.303Z,89.97
2018-03-07T11:26:13.021Z,89.78
2018-03-07T11:27:22.979Z,89.4
2018-03-07T11:28:33.025Z,90.16
2018-03-07T11:29:43.048Z,89.73
2018-03-07T11:30:53.017Z,89.82
2018-03-07T11:32:03.059Z,92.19
2018-03-07T11:33:12.768Z,94.18
2018-03-07T11:34:22.549Z,95.07
2018-03-07T11:35:32.635Z,95.12
2018-03-07T11:36:42.342Z,94.13
2018-03-07T11:37:52.306Z,93.66
2018-03-07T11:39:02.257Z,92.94
2018-03-07T11:40:12.220Z,93.32
2018-03-07T11:41:22.186Z,92.38
2018-03-07T11:42:32.154Z,92.94
2018-03-07T11:43:41.858Z,93.04
2018-03-07T11:44:51.341Z,93.42
2018-03-07T11:46:01.058Z,92.94
2018-03-07T11:47:11.030Z,93.13
2018-03-07T11:48:20.992Z,92.85
2018-03-07T11:49:30.993Z,93.04
2018-03-07T11:50:40.959Z,94.84
2018-03-07T11:51:50.942Z,95.31
2018-03-07T11:53:00.989Z,94.6
2018-03-07T11:54:10.403Z,95.12
2018-03-07T11:55:20.110Z,94.27
2018-03-07T11:56:29.560Z,94.37
2018-03-07T11:57:39.280Z,94.18
2018-03-07T11:58:48.990Z,94.27
2018-03-07T11:59:58.954Z,93.99
2018-03-07T12:01:08.940Z,93.8
2018-03-07T12:02:18.942Z,95.21
2018-03-07T12:03:28.941Z,94.74
2018-03-07T12:04:38.928Z,95.21
2018-03-07T12:05:48.883Z,94.37
2018-03-07T12:06:58.845Z,93.8
2018-03-07T12:08:08.293Z,93.42
2018-03-07T12:09:18.311Z,93.51
2018-03-07T12:10:28.289Z,93.13
2018-03-07T12:11:38.265Z,93.89
2018-03-07T12:12:48.065Z,94.56
2018-03-07T12:13:58.162Z,95.03
2018-03-07T12:15:08.273Z,94.37
2018-03-07T12:16:18.507Z,94.37
2018-03-07T12:17:28.484Z,94.18
2018-03-07T12:18:38.257Z,94.37
2018-03-07T12:19:48.242Z,93.89
2018-03-07T12:20:58.228Z,94.65
2018-03-07T12:22:08.206Z,94.08
2018-03-07T12:23:17.924Z,93.99
2018-03-07T12:24:27.647Z,94.74
2018-03-07T12:25:37.357Z,94.84
2018-03-07T12:26:47.329Z,94.18
2018-03-07T12:27:57.301Z,94.74
2018-03-07T12:29:07.289Z,95.21
2018-03-07T12:30:17.269Z,94.65
2018-03-07T12:31:27.245Z,94.65
2018-03-07T12:32:37.266Z,93.8
2018-03-07T12:33:46.963Z,94.74
2018-03-07T12:34:56.688Z,94.56
2018-03-07T12:36:06.404Z,94.74
2018-03-07T12:37:16.374Z,94.56
2018-03-07T12:38:26.076Z,95.78
2018-03-07T12:39:36.075Z,95.88
2018-03-07T12:40:46.099Z,95.88
2018-03-07T12:41:56.089Z,96.64
2018-03-07T12:43:05.532Z,95.88
2018-03-07T12:44:15.240Z,96.64
2018-03-07T12:45:25.240Z,98.44
2018-03-07T12:46:35.196Z,97.49
2018-03-07T12:47:45.178Z,98.34
2018-03-07T12:48:54.887Z,97.49
2018-03-07T12:50:04.868Z,97.3
2018-03-07T12:51:14.586Z,97.39
2018-03-07T12:52:24.047Z,97.3
2018-03-07T12:53:33.765Z,98.06
2018-03-07T12:54:43.746Z,97.49
2018-03-07T12:55:53.979Z,97.77
2018-03-07T12:57:03.945Z,98.06
2018-03-07T12:58:13.662Z,97.77
2018-03-07T12:59:23.365Z,97.3
2018-03-07T13:00:33.350Z,97.58
2018-03-07T13:01:43.320Z,97.68
2018-03-07T13:02:53.337Z,96.83
2018-03-07T13:04:03.306Z,96.92
2018-03-07T13:05:13.032Z,96.83
2018-03-07T13:06:22.754Z,96.45
2018-03-07T13:07:32.472Z,96.83
2018-03-07T13:08:42.179Z,95.59
2018-03-07T13:09:52.163Z,95.78
2018-03-07T13:11:02.135Z,95.78
2018-03-07T13:12:12.118Z,96.64
2018-03-07T13:13:22.098Z,96.64
2018-03-07T13:14:31.807Z,97.39
2018-03-07T13:15:41.784Z,97.3
2018-03-07T13:16:51.743Z,96.92
2018-03-07T13:18:01.470Z,97.3
2018-03-07T13:19:11.792Z,97.11
2018-03-07T13:20:21.788Z,97.02
2018-03-07T13:21:31.504Z,96.83
2018-03-07T13:22:41.491Z,96.35
2018-03-07T13:23:51.464Z,95.78
2018-03-07T13:25:01.154Z,96.64
2018-03-07T13:26:11.123Z,96.64
2018-03-07T13:27:21.091Z,95.97
2018-03-07T13:28:31.064Z,95.59
2018-03-07T13:29:40.783Z,96.45
2018-03-07T13:30:50.765Z,96.83
2018-03-07T13:32:00.747Z,96.35
2018-03-07T13:33:10.532Z,96.45
2018-03-07T13:34:20.265Z,96.64
2018-03-07T13:35:30.238Z,96.73
2018-03-07T13:36:39.160Z,96.26
2018-03-07T13:37:49.133Z,96.07
2018-03-07T13:38:58.636Z,96.45
2018-03-07T13:40:08.338Z,96.45
2018-03-07T13:41:18.303Z,95.97
2018-03-07T13:42:28.009Z,95.88
2018-03-07T13:43:37.707Z,96.54
2018-03-07T13:44:47.427Z,95.88
2018-03-07T13:45:57.386Z,96.83
2018-03-07T13:47:07.356Z,97.2
2018-03-07T13:48:17.321Z,96.64
2018-03-07T13:49:27.287Z,98.25
2018-03-07T13:50:37.327Z,97.77
2018-03-07T13:51:47.743Z,97.68
2018-03-07T13:52:57.700Z,97.3
2018-03-07T13:54:07.418Z,97.58
2018-03-07T13:55:17.389Z,96.73
2018-03-07T13:56:27.483Z,96.83
2018-03-07T13:57:37.452Z,97.02
2018-03-07T13:58:47.407Z,96.92
2018-03-07T13:59:57.090Z,97.49
2018-03-07T14:01:06.793Z,97.58
2018-03-07T14:02:16.750Z,98.44
2018-03-07T14:03:26.730Z,98.72
2018-03-07T14:04:36.184Z,98.34
2018-03-07T14:05:46.177Z,97.58
2018-03-07T14:06:55.885Z,98.44
2018-03-07T14:08:05.605Z,99.85
2018-03-07T14:09:15.304Z,99.85
2018-03-07T14:10:25.004Z,99.99
2018-03-07T14:11:34.738Z,99.99
2018-03-07T14:12:44.447Z,99.99
2018-03-07T14:13:54.150Z,99.99
2018-03-07T14:15:04.106Z,99.99
2018-03-07T14:16:13.823Z,99.99
2018-03-07T14:17:23.795Z,99.99
2018-03-07T14:18:33.766Z,99.99
2018-03-07T14:19:43.483Z,99.99
2018-03-07T14:20:53.206Z,99.95
2018-03-07T14:22:03.195Z,99.99
2018-03-07T14:23:13.158Z,99.99
2018-03-07T14:24:22.922Z,99.99
2018-03-07T14:25:32.711Z,99.99
2018-03-07T14:26:42.163Z,99.99
2018-03-07T14:27:52.216Z,99.99
2018-03-07T14:29:01.669Z,99.99
2018-03-07T14:30:11.629Z,99.99
2018-03-07T14:31:21.590Z,99.99
2018-03-07T14:32:31.054Z,99.99
2018-03-07T14:33:40.755Z,99.99
2018-03-07T14:34:50.208Z,99.99
2018-03-07T14:35:59.645Z,99.99
2018-03-07T14:37:08.841Z,99.99
2018-03-07T14:38:18.560Z,99.99
2018-03-07T14:39:28.279Z,99.99
2018-03-07T14:40:37.727Z,99.99
2018-03-07T14:41:47.187Z,99.99
2018-03-07T14:42:57.156Z,99.99
2018-03-07T14:44:06.617Z,99.99
2018-03-07T14:45:16.318Z,99.99
2018-03-07T14:46:25.765Z,99.99
2018-03-07T14:47:35.469Z,99.99
2018-03-07T14:48:45.422Z,99.99
2018-03-07T14:49:55.428Z,99.99
2018-03-07T14:51:05.136Z,99.99
2018-03-07T14:52:14.860Z,99.99
2018-03-07T14:53:24.823Z,99.99
2018-03-07T14:54:34.792Z,99.99
2018-03-07T14:55:44.777Z,99.99
2018-03-07T14:56:54.747Z,99.99
2018-03-07T14:58:04.476Z,99.99
2018-03-07T14:59:14.168Z,99.99
2018-03-07T15:00:23.629Z,99.99
2018-03-07T15:01:33.224Z,99.99
2018-03-07T15:02:42.156Z,99.99